Time;durP1;ratioP1;P1;durP2;ratioP2;P2;SDS_P1;SDS_P2;PMS_P1;PMS_P2;Temp;Humidity;BMP_temperature;BMP_pressure;BME280_temperature;BME280_humidity;BME280_pressure;Samples;Min_cycle;Max_cycle;Signal;HPM_P1;HPM_P2
2022/02/02 12:57:01;;;;;;;1.97;1.53;;;;;;;17.74;46.31;97194.19;6160118;23;20749;-84
2022/02/02 13:02:18;;;;;;;2.33;1.67;;;;;;;18.44;46.38;97324.09;6168366;23;20569;-83
2022/02/02 13:04:55;;;;;;;2.40;1.30;;;;;;;18.33;46.09;97295.66;6162832;23;20248;-85
2022/02/02 13:07:28;;;;;;;1.87;1.63;;;;;;;18.17;46.19;97300.97;6187160;23;20268;-85
2022/02/02 13:09:55;;;;;;;1.80;1.53;;;;;;;17.70;46.22;97184.72;6137155;23;20204;-86
2022/02/02 13:12:23;;;;;;;2.23;1.57;;;;;;;17.49;46.22;97152.53;6137247;23;20908;-86
2022/02/02 13:17:45;;;;;;;2.30;1.70;;;;;;;19.00;46.21;97413.63;6210708;23;20199;-85
2022/02/02 13:20:15;;;;;;;1.97;1.60;;;;;;;18.53;46.30;97332.06;6212960;23;20166;-85
2022/02/02 13:22:48;;;;;;;2.10;1.77;;;;;;;18.07;46.12;97258.19;6163368;23;20556;-85
2022/02/02 13:25:35;;;;;;;2.00;1.80;;;;;;;18.57;45.77;97337.34;6137165;23;20560;-85
2022/02/02 13:28:02;;;;;;;7.10;2.40;;;;;;;18.10;45.92;97255.75;6138294;23;20161;-85
2022/02/02 13:30:50;;;;;;;2.17;1.67;;;;;;;18.39;45.92;97326.47;6162781;23;20196;-85
2022/02/02 13:33:27;;;;;;;2.97;1.87;;;;;;;17.99;45.97;97262.09;6143264;23;20157;-86
2022/02/02 13:36:16;;;;;;;2.10;1.67;;;;;;;18.99;45.99;97450.97;6166507;23;20257;-86
2022/02/02 13:39:11;;;;;;;2.50;1.60;;;;;;;17.82;46.11;97279.25;6214392;23;20158;-84
2022/02/02 13:45:24;;;;;;;4.43;1.83;;;;;;;18.49;46.33;97376.88;6171324;23;20161;-86
2022/02/02 14:31:23;;;;;;;2.33;1.73;;;;;;;18.13;45.96;97365.22;6319367;22;20653;-88
2022/02/02 14:33:53;;;;;;;2.33;1.80;;;;;;;18.61;46.00;97455.38;6334339;22;20162;-86
2022/02/02 14:36:26;;;;;;;2.27;1.53;;;;;;;18.97;46.02;97515.38;6334660;22;20830;-87
2022/02/02 14:38:59;;;;;;;2.27;1.80;;;;;;;18.00;45.85;97353.69;6308885;22;20200;-85
2022/02/02 14:42:31;;;;;;;1.87;1.47;;;;;;;18.62;45.81;97473.25;6310067;22;20201;-85
2022/02/02 14:44:30;;;;;;;2.73;1.80;;;;;;;18.24;45.69;97409.78;6301064;22;20174;-86
2022/02/02 14:47:24;;;;;;;2.20;1.70;;;;;;;18.32;45.83;97448.25;6293688;22;20184;-85
2022/02/02 14:50:15;;;;;;;3.53;1.90;;;;;;;17.43;45.58;97272.56;6309377;22;20198;-88
2022/02/02 15:09:14;;;;;;;2.53;1.60;;;;;;;16.45;46.32;97150.69;6345336;22;20138;-89
2022/02/02 15:27:29;;;;;;;1.93;1.53;;;;;;;19.20;45.66;97619.03;6239266;23;20178;-90
2022/02/02 15:33:12;;;;;;;2.23;1.57;;;;;;;18.56;45.65;97531.53;6217073;23;20304;-87
2022/02/02 15:35:41;;;;;;;2.50;1.70;;;;;;;18.28;45.61;97493.03;6187647;23;20180;-86
2022/02/02 15:38:17;;;;;;;2.90;1.90;;;;;;;18.97;45.50;97615.56;6163782;23;20279;-85
2022/02/02 15:40:52;;;;;;;1.83;1.70;;;;;;;18.56;45.45;97551.06;6191528;23;20226;-86
2022/02/02 16:02:29;;;;;;;2.23;1.80;;;;;;;19.27;45.60;97670.34;6280545;22;20240;-87
2022/02/02 16:04:57;;;;;;;1.67;1.53;;;;;;;18.78;45.49;97595.28;6282807;22;20158;-86
2022/02/02 16:07:28;;;;;;;4.97;2.30;;;;;;;18.88;44.63;97604.13;6252973;22;20269;-87
2022/02/02 16:09:59;;;;;;;7.67;2.60;;;;;;;18.92;44.13;97623.84;6279854;22;20186;-86
2022/02/02 16:12:30;;;;;;;3.97;2.50;;;;;;;19.13;44.10;97657.81;6280192;22;20232;-85
2022/02/02 16:15:14;;;;;;;6.20;2.10;;;;;;;18.59;44.08;97590.22;6304054;22;20206;-86
2022/02/02 16:39:14;;;;;;;3.53;2.07;;;;;;;19.03;44.99;97691.34;6280972;22;20197;-86
2022/02/02 16:44:25;;;;;;;3.57;1.80;;;;;;;17.64;44.99;97458.91;6286611;22;20189;-88
2022/02/02 16:46:52;;;;;;;9.17;2.20;;;;;;;18.80;45.17;97669.16;6252051;22;20174;-85
2022/02/02 16:49:19;;;;;;;3.93;1.97;;;;;;;18.70;45.21;97651.75;6252201;22;20210;-86
2022/02/02 16:51:46;;;;;;;3.27;1.90;;;;;;;18.05;45.30;97549.69;6278179;22;20277;-85
2022/02/02 16:54:23;;;;;;;3.50;2.23;;;;;;;18.27;45.15;97594.72;6302714;22;20227;-87
2022/02/02 16:57:23;;;;;;;4.13;2.30;;;;;;;19.22;45.33;97755.88;6328885;22;20142;-90
2022/02/02 18:01:37;;;;;;;2.57;2.00;;;;;;;18.70;44.90;97726.44;6334014;22;20575;-85
2022/02/02 18:12:24;;;;;;;2.33;1.63;;;;;;;19.30;44.81;97853.09;6333345;22;20202;-85
2022/02/02 18:20:17;;;;;;;2.53;1.67;;;;;;;18.83;45.17;97802.56;6306626;22;20653;-84
2022/02/02 18:22:50;;;;;;;3.30;1.77;;;;;;;18.13;45.12;97666.22;6282591;22;20154;-85
2022/02/02 18:25:32;;;;;;;2.13;1.47;;;;;;;18.43;45.33;97729.44;6281390;22;20173;-83
2022/02/02 18:30:51;;;;;;;2.23;1.77;;;;;;;18.81;45.25;97791.44;6304709;22;20664;-85
2022/02/02 18:33:31;;;;;;;2.07;1.50;;;;;;;18.97;45.44;97837.16;6308268;22;20276;-85
2022/02/02 18:36:29;;;;;;;2.50;1.60;;;;;;;18.15;45.34;97691.72;6287332;22;20245;-85
2022/02/02 18:55:53;;;;;;;1.47;1.37;;;;;;;18.95;45.51;97863.38;6230351;22;20209;-86
2022/02/02 19:38:45;;;;;;;3.03;2.00;;;;;;;18.87;45.32;97910.53;6292179;22;20182;-86
2022/02/02 20:35:31;;;;;;;2.50;2.17;;;;;;;18.12;45.55;97823.84;6192432;22;21026;-84
2022/02/02 20:37:58;;;;;;;2.63;2.00;;;;;;;18.18;45.54;97845.31;6283870;22;20522;-84
2022/02/02 20:40:25;;;;;;;2.33;1.80;;;;;;;18.75;45.77;97925.22;6283398;22;20498;-84
2022/02/02 21:10:22;;;;;;;3.20;2.00;;;;;;;18.78;45.14;97926.25;6284307;22;20250;-86
2022/02/02 21:15:33;;;;;;;3.13;2.20;;;;;;;19.13;45.18;97991.56;6288968;22;20262;-86
2022/02/02 21:18:07;;;;;;;2.67;2.40;;;;;;;18.87;45.28;97946.16;6256688;22;20622;-86
2022/02/02 21:20:41;;;;;;;3.33;2.10;;;;;;;18.93;45.36;97951.56;6258934;22;20161;-86
2022/02/02 21:23:25;;;;;;;3.83;2.43;;;;;;;19.27;45.11;98021.97;6258992;22;20186;-86
2022/02/02 21:28:38;;;;;;;3.30;2.20;;;;;;;18.64;45.08;97911.13;6288004;22;20246;-85
2022/02/02 21:31:05;;;;;;;2.43;2.20;;;;;;;19.11;45.25;97996.59;6280292;22;20187;-86
2022/02/02 21:33:34;;;;;;;2.67;2.13;;;;;;;19.04;45.21;97991.13;6254542;22;20301;-85
2022/02/02 21:36:00;;;;;;;3.30;2.30;;;;;;;19.20;45.24;98017.38;6258904;22;20193;-86
2022/02/02 21:38:52;;;;;;;3.73;2.33;;;;;;;18.93;45.08;97977.91;6307401;22;20166;-86
2022/02/02 21:41:23;;;;;;;3.83;2.40;;;;;;;18.96;45.17;97983.13;6310464;22;20244;-86
2022/02/02 21:43:50;;;;;;;2.13;1.80;;;;;;;19.16;45.22;98020.56;6281348;22;20163;-86
2022/02/02 21:46:18;;;;;;;3.90;2.70;;;;;;;18.66;45.03;97932.44;6305651;22;20471;-85
2022/02/02 21:48:45;;;;;;;2.40;2.17;;;;;;;19.04;45.18;98001.31;6306636;22;20260;-86
2022/02/02 21:51:22;;;;;;;4.07;2.60;;;;;;;18.80;45.17;97965.38;6305781;22;20194;-86
2022/02/02 21:53:49;;;;;;;2.60;2.17;;;;;;;19.00;45.22;97992.66;6308313;22;20291;-85
2022/02/02 21:56:15;;;;;;;3.43;2.33;;;;;;;18.99;45.13;97990.91;6279951;22;20253;-86
2022/02/02 21:58:42;;;;;;;3.13;2.20;;;;;;;18.65;45.11;97935.81;6305717;22;20178;-86
2022/02/02 22:01:09;;;;;;;2.73;2.30;;;;;;;19.02;45.12;98003.78;6330349;22;20190;-87
2022/02/02 22:03:35;;;;;;;2.70;2.23;;;;;;;19.06;45.26;98008.22;6279044;22;20209;-86
2022/02/02 22:27:37;;;;;;;3.37;2.40;;;;;;;18.63;45.19;97967.94;6267658;22;20234;-85
2022/02/02 22:30:05;;;;;;;4.63;2.20;;;;;;;18.25;45.03;97894.81;6254993;22;20178;-85
2022/02/02 22:32:31;;;;;;;4.13;2.73;;;;;;;18.26;45.36;97890.63;6280405;22;20277;-86
2022/02/02 22:34:58;;;;;;;3.00;2.30;;;;;;;18.72;45.24;97986.19;6253664;22;20247;-86
2022/02/02 22:37:26;;;;;;;3.63;2.50;;;;;;;17.37;45.21;97751.47;6255130;22;20552;-86
2022/02/02 22:39:53;;;;;;;3.93;2.53;;;;;;;18.56;45.21;97971.84;6255151;22;20174;-86
2022/02/02 22:42:22;;;;;;;3.33;2.20;;;;;;;17.98;45.29;97860.44;6280480;22;20669;-86
2022/02/02 22:44:51;;;;;;;3.20;2.17;;;;;;;18.94;45.27;98027.13;6281416;22;20275;-86
2022/02/02 22:47:17;;;;;;;3.07;2.07;;;;;;;18.51;45.11;97957.19;6255453;22;20158;-86
2022/02/02 22:49:48;;;;;;;2.10;1.90;;;;;;;18.82;45.19;98004.53;6279970;22;20170;-86
2022/02/02 22:52:15;;;;;;;3.47;2.40;;;;;;;18.63;45.17;97978.13;6280723;22;20328;-85
2022/02/02 22:54:42;;;;;;;2.67;2.17;;;;;;;19.06;45.16;98045.53;6254762;22;20699;-86
2022/02/02 22:57:09;;;;;;;3.33;2.20;;;;;;;18.74;45.29;97992.25;6254687;22;20178;-86
2022/02/02 22:59:38;;;;;;;2.43;2.23;;;;;;;19.14;45.10;98052.78;6254498;22;20185;-86
2022/02/02 23:02:27;;;;;;;2.70;2.03;;;;;;;19.06;45.10;98043.88;6280858;22;20281;-86
2022/02/02 23:04:54;;;;;;;3.00;2.20;;;;;;;18.88;45.15;98016.66;6263102;22;20178;-86
2022/02/02 23:07:20;;;;;;;2.77;2.30;;;;;;;18.67;45.52;97977.47;6279619;22;20193;-86
2022/02/02 23:09:49;;;;;;;3.53;2.47;;;;;;;18.94;45.13;98034.78;6279309;22;20509;-86
2022/02/02 23:12:25;;;;;;;2.93;2.17;;;;;;;19.07;44.92;98062.59;6280389;22;20224;-86
2022/02/02 23:14:52;;;;;;;3.13;2.20;;;;;;;19.17;45.00;98078.41;6304484;22;20238;-85
2022/02/02 23:17:21;;;;;;;4.30;2.47;;;;;;;18.97;45.03;98040.03;6254424;22;20672;-85
2022/02/02 23:19:50;;;;;;;4.33;2.40;;;;;;;18.93;45.13;98049.22;6255073;22;20209;-85
2022/02/02 23:22:19;;;;;;;3.70;2.40;;;;;;;18.84;44.95;98025.84;6255221;22;20241;-86
2022/02/02 23:24:48;;;;;;;3.80;2.60;;;;;;;19.20;45.28;98088.72;6280593;22;20253;-86
2022/02/02 23:27:14;;;;;;;2.80;2.30;;;;;;;19.20;44.99;98088.72;6254393;22;20206;-86
2022/02/02 23:29:48;;;;;;;3.40;2.60;;;;;;;19.21;44.57;98094.69;6279825;22;20158;-86
2022/02/02 23:32:18;;;;;;;2.83;2.30;;;;;;;18.51;45.02;97964.81;6255711;22;20225;-86
2022/02/02 23:34:44;;;;;;;2.80;2.10;;;;;;;19.10;45.05;98078.03;6280143;22;20606;-86
2022/02/02 23:37:11;;;;;;;2.90;2.10;;;;;;;18.35;45.02;97945.34;6254266;22;20170;-86
2022/02/02 23:39:39;;;;;;;2.40;2.20;;;;;;;18.93;45.03;98043.22;6254124;22;20167;-87
2022/02/02 23:44:35;;;;;;;4.53;2.33;;;;;;;18.76;45.26;98016.97;6305044;22;20235;-86
